sensor_id;sensor_type;location;lat;lon;timestamp;P1;durP1;ratioP1;P2;durP2;ratioP2
63157;SDS011;49381;49.338;8.794;2022-08-01T00:01:57;8.55;;;2.47;;
63157;SDS011;49381;49.338;8.794;2022-08-01T00:03:57;5.43;;;2.10;;
63157;SDS011;49381;49.338;8.794;2022-08-01T00:05:59;4.25;;;2.00;;
63157;SDS011;49381;49.338;8.794;2022-08-01T00:07:59;4.18;;;2.13;;
63157;SDS011;49381;49.338;8.794;2022-08-01T00:09:59;6.18;;;2.55;;
63157;SDS011;49381;49.338;8.794;2022-08-01T00:12:00;2.85;;;2.25;;
63157;SDS011;49381;49.338;8.794;2022-08-01T00:14:00;3.60;;;2.20;;
63157;SDS011;49381;49.338;8.794;2022-08-01T00:16:00;2.25;;;1.77;;
63157;SDS011;49381;49.338;8.794;2022-08-01T00:18:01;3.63;;;2.00;;
63157;SDS011;49381;49.338;8.794;2022-08-01T00:20:02;3.50;;;1.92;;
63157;SDS011;49381;49.338;8.794;2022-08-01T00:22:04;3.85;;;1.90;;
63157;SDS011;49381;49.338;8.794;2022-08-01T00:24:05;4.95;;;2.55;;
63157;SDS011;49381;49.338;8.794;2022-08-01T00:26:06;3.47;;;2.17;;
63157;SDS011;49381;49.338;8.794;2022-08-01T00:28:06;4.32;;;2.30;;
63157;SDS011;49381;49.338;8.794;2022-08-01T00:30:07;3.65;;;1.75;;
63157;SDS011;49381;49.338;8.794;2022-08-01T00:32:08;3.13;;;2.30;;
63157;SDS011;49381;49.338;8.794;2022-08-01T00:34:08;2.92;;;1.90;;
63157;SDS011;49381;49.338;8.794;2022-08-01T00:36:08;5.93;;;2.40;;
63157;SDS011;49381;49.338;8.794;2022-08-01T00:38:10;3.65;;;2.03;;
63157;SDS011;49381;49.338;8.794;2022-08-01T00:40:10;3.58;;;2.00;;
63157;SDS011;49381;49.338;8.794;2022-08-01T00:42:11;3.97;;;1.90;;
63157;SDS011;49381;49.338;8.794;2022-08-01T00:44:12;4.35;;;2.60;;
63157;SDS011;49381;49.338;8.794;2022-08-01T00:46:12;3.92;;;2.60;;
63157;SDS011;49381;49.338;8.794;2022-08-01T00:48:13;5.00;;;2.35;;
63157;SDS011;49381;49.338;8.794;2022-08-01T00:50:13;3.85;;;2.22;;
63157;SDS011;49381;49.338;8.794;2022-08-01T00:52:13;3.05;;;2.25;;
63157;SDS011;49381;49.338;8.794;2022-08-01T00:54:15;4.38;;;2.45;;
63157;SDS011;49381;49.338;8.794;2022-08-01T00:56:16;3.20;;;2.05;;
63157;SDS011;49381;49.338;8.794;2022-08-01T00:58:16;3.47;;;2.22;;
63157;SDS011;49381;49.338;8.794;2022-08-01T01:00:17;6.15;;;2.03;;
63157;SDS011;49381;49.338;8.794;2022-08-01T01:02:17;4.45;;;2.00;;
63157;SDS011;49381;49.338;8.794;2022-08-01T01:04:18;3.35;;;2.13;;
63157;SDS011;49381;49.338;8.794;2022-08-01T01:06:22;5.38;;;2.28;;
63157;SDS011;49381;49.338;8.794;2022-08-01T01:08:27;7.47;;;2.58;;
63157;SDS011;49381;49.338;8.794;2022-08-01T01:10:35;4.15;;;2.58;;
63157;SDS011;49381;49.338;8.794;2022-08-01T01:12:42;4.20;;;2.13;;
63157;SDS011;49381;49.338;8.794;2022-08-01T01:14:44;4.90;;;2.40;;
63157;SDS011;49381;49.338;8.794;2022-08-01T01:17:03;4.70;;;2.22;;
63157;SDS011;49381;49.338;8.794;2022-08-01T01:19:10;2.97;;;2.10;;
63157;SDS011;49381;49.338;8.794;2022-08-01T01:21:24;3.25;;;1.88;;
63157;SDS011;49381;49.338;8.794;2022-08-01T01:23:34;2.60;;;2.08;;
63157;SDS011;49381;49.338;8.794;2022-08-01T01:26:01;4.53;;;2.33;;
63157;SDS011;49381;49.338;8.794;2022-08-01T01:28:29;4.32;;;2.22;;
63157;SDS011;49381;49.338;8.794;2022-08-01T01:30:35;3.10;;;2.15;;
63157;SDS011;49381;49.338;8.794;2022-08-01T01:32:38;4.20;;;2.25;;
63157;SDS011;49381;49.338;8.794;2022-08-01T01:34:43;5.13;;;2.50;;
63157;SDS011;49381;49.338;8.794;2022-08-01T01:36:45;4.20;;;2.40;;
63157;SDS011;49381;49.338;8.794;2022-08-01T01:38:48;3.30;;;2.50;;
63157;SDS011;49381;49.338;8.794;2022-08-01T01:40:51;5.63;;;2.45;;
63157;SDS011;49381;49.338;8.794;2022-08-01T01:42:52;4.38;;;2.85;;
63157;SDS011;49381;49.338;8.794;2022-08-01T01:44:55;3.42;;;2.30;;
63157;SDS011;49381;49.338;8.794;2022-08-01T01:46:58;3.58;;;2.40;;
63157;SDS011;49381;49.338;8.794;2022-08-01T01:49:00;5.00;;;2.47;;
63157;SDS011;49381;49.338;8.794;2022-08-01T01:51:02;4.70;;;2.03;;
63157;SDS011;49381;49.338;8.794;2022-08-01T01:53:04;2.83;;;2.20;;
63157;SDS011;49381;49.338;8.794;2022-08-01T01:55:06;3.05;;;2.47;;
63157;SDS011;49381;49.338;8.794;2022-08-01T01:57:08;5.90;;;2.53;;
63157;SDS011;49381;49.338;8.794;2022-08-01T01:59:09;5.68;;;2.47;;
63157;SDS011;49381;49.338;8.794;2022-08-01T02:01:10;7.07;;;3.38;;
63157;SDS011;49381;49.338;8.794;2022-08-01T02:03:13;4.22;;;2.60;;
63157;SDS011;49381;49.338;8.794;2022-08-01T02:05:15;4.97;;;2.83;;
63157;SDS011;49381;49.338;8.794;2022-08-01T02:07:17;5.00;;;2.83;;
63157;SDS011;49381;49.338;8.794;2022-08-01T02:09:21;4.00;;;2.63;;
63157;SDS011;49381;49.338;8.794;2022-08-01T02:11:22;5.45;;;2.75;;
63157;SDS011;49381;49.338;8.794;2022-08-01T02:13:23;4.03;;;2.47;;
63157;SDS011;49381;49.338;8.794;2022-08-01T02:15:24;3.50;;;2.40;;
63157;SDS011;49381;49.338;8.794;2022-08-01T02:17:26;4.57;;;2.30;;
63157;SDS011;49381;49.338;8.794;2022-08-01T02:19:28;4.38;;;2.25;;
63157;SDS011;49381;49.338;8.794;2022-08-01T02:21:30;4.88;;;2.33;;
63157;SDS011;49381;49.338;8.794;2022-08-01T02:23:33;6.03;;;2.50;;
63157;SDS011;49381;49.338;8.794;2022-08-01T02:25:36;4.60;;;2.60;;
63157;SDS011;49381;49.338;8.794;2022-08-01T02:27:40;4.70;;;2.10;;
63157;SDS011;49381;49.338;8.794;2022-08-01T02:29:45;7.70;;;2.70;;
63157;SDS011;49381;49.338;8.794;2022-08-01T02:31:50;3.30;;;2.47;;
63157;SDS011;49381;49.338;8.794;2022-08-01T02:33:55;5.50;;;2.70;;
63157;SDS011;49381;49.338;8.794;2022-08-01T02:38:03;4.70;;;2.50;;
63157;SDS011;49381;49.338;8.794;2022-08-01T02:40:05;3.70;;;2.17;;
63157;SDS011;49381;49.338;8.794;2022-08-01T02:42:07;5.05;;;2.70;;
63157;SDS011;49381;49.338;8.794;2022-08-01T02:44:12;9.20;;;2.70;;
63157;SDS011;49381;49.338;8.794;2022-08-01T02:46:21;5.03;;;2.75;;
63157;SDS011;49381;49.338;8.794;2022-08-01T02:48:24;6.80;;;2.40;;
63157;SDS011;49381;49.338;8.794;2022-08-01T02:50:25;5.82;;;2.53;;
63157;SDS011;49381;49.338;8.794;2022-08-01T02:52:29;4.72;;;2.25;;
63157;SDS011;49381;49.338;8.794;2022-08-01T02:54:32;4.82;;;2.22;;
63157;SDS011;49381;49.338;8.794;2022-08-01T02:56:33;2.92;;;2.25;;
63157;SDS011;49381;49.338;8.794;2022-08-01T02:58:35;3.65;;;2.42;;
63157;SDS011;49381;49.338;8.794;2022-08-01T03:00:36;2.70;;;2.05;;
63157;SDS011;49381;49.338;8.794;2022-08-01T03:02:37;4.05;;;2.50;;
63157;SDS011;49381;49.338;8.794;2022-08-01T03:04:40;4.75;;;2.25;;
63157;SDS011;49381;49.338;8.794;2022-08-01T03:06:41;4.78;;;1.90;;
63157;SDS011;49381;49.338;8.794;2022-08-01T03:08:43;3.75;;;1.80;;
63157;SDS011;49381;49.338;8.794;2022-08-01T03:10:46;4.07;;;1.92;;
63157;SDS011;49381;49.338;8.794;2022-08-01T03:12:48;4.57;;;2.20;;
63157;SDS011;49381;49.338;8.794;2022-08-01T03:14:50;5.10;;;2.50;;
63157;SDS011;49381;49.338;8.794;2022-08-01T03:16:53;3.55;;;2.03;;
63157;SDS011;49381;49.338;8.794;2022-08-01T03:18:55;5.00;;;2.22;;
63157;SDS011;49381;49.338;8.794;2022-08-01T03:20:57;5.03;;;2.25;;
63157;SDS011;49381;49.338;8.794;2022-08-01T03:22:59;4.60;;;2.40;;
63157;SDS011;49381;49.338;8.794;2022-08-01T03:25:02;3.47;;;2.35;;
63157;SDS011;49381;49.338;8.794;2022-08-01T03:27:04;5.53;;;2.40;;
63157;SDS011;49381;49.338;8.794;2022-08-01T03:29:06;6.18;;;2.70;;
63157;SDS011;49381;49.338;8.794;2022-08-01T03:31:09;4.00;;;2.47;;
63157;SDS011;49381;49.338;8.794;2022-08-01T03:33:10;4.38;;;2.70;;
63157;SDS011;49381;49.338;8.794;2022-08-01T03:35:10;3.15;;;2.30;;
63157;SDS011;49381;49.338;8.794;2022-08-01T03:37:12;5.15;;;2.35;;
63157;SDS011;49381;49.338;8.794;2022-08-01T03:39:19;4.47;;;2.50;;
63157;SDS011;49381;49.338;8.794;2022-08-01T03:41:26;5.22;;;2.50;;
63157;SDS011;49381;49.338;8.794;2022-08-01T03:43:30;4.05;;;2.50;;
63157;SDS011;49381;49.338;8.794;2022-08-01T03:45:34;3.97;;;2.33;;
63157;SDS011;49381;49.338;8.794;2022-08-01T03:47:36;6.70;;;2.55;;
63157;SDS011;49381;49.338;8.794;2022-08-01T03:49:38;7.25;;;2.75;;
63157;SDS011;49381;49.338;8.794;2022-08-01T03:51:42;3.50;;;2.45;;
63157;SDS011;49381;49.338;8.794;2022-08-01T03:53:44;8.27;;;2.88;;
63157;SDS011;49381;49.338;8.794;2022-08-01T03:55:45;7.88;;;2.83;;
63157;SDS011;49381;49.338;8.794;2022-08-01T03:57:47;5.05;;;2.58;;
63157;SDS011;49381;49.338;8.794;2022-08-01T03:59:48;4.57;;;2.75;;
63157;SDS011;49381;49.338;8.794;2022-08-01T04:01:49;4.70;;;2.83;;
63157;SDS011;49381;49.338;8.794;2022-08-01T04:03:50;5.72;;;2.78;;
63157;SDS011;49381;49.338;8.794;2022-08-01T04:05:50;4.95;;;2.50;;
63157;SDS011;49381;49.338;8.794;2022-08-01T04:07:51;4.55;;;2.53;;
63157;SDS011;49381;49.338;8.794;2022-08-01T04:09:51;4.38;;;2.72;;
63157;SDS011;49381;49.338;8.794;2022-08-01T04:11:52;5.07;;;2.70;;
63157;SDS011;49381;49.338;8.794;2022-08-01T04:13:54;5.65;;;2.63;;
63157;SDS011;49381;49.338;8.794;2022-08-01T04:15:55;6.15;;;2.70;;
63157;SDS011;49381;49.338;8.794;2022-08-01T04:17:55;7.53;;;2.42;;
63157;SDS011;49381;49.338;8.794;2022-08-01T04:19:56;5.85;;;2.58;;
63157;SDS011;49381;49.338;8.794;2022-08-01T04:21:56;6.95;;;2.65;;
63157;SDS011;49381;49.338;8.794;2022-08-01T04:23:58;7.55;;;3.15;;
63157;SDS011;49381;49.338;8.794;2022-08-01T04:25:59;6.57;;;3.42;;
63157;SDS011;49381;49.338;8.794;2022-08-01T04:28:03;4.80;;;2.88;;
63157;SDS011;49381;49.338;8.794;2022-08-01T04:30:07;5.70;;;3.05;;
63157;SDS011;49381;49.338;8.794;2022-08-01T04:32:10;7.53;;;2.88;;
63157;SDS011;49381;49.338;8.794;2022-08-01T04:34:12;5.93;;;2.78;;
63157;SDS011;49381;49.338;8.794;2022-08-01T04:36:15;4.63;;;2.70;;
63157;SDS011;49381;49.338;8.794;2022-08-01T04:38:21;5.47;;;2.70;;
63157;SDS011;49381;49.338;8.794;2022-08-01T04:40:25;6.22;;;2.30;;
63157;SDS011;49381;49.338;8.794;2022-08-01T04:42:26;5.90;;;3.00;;
63157;SDS011;49381;49.338;8.794;2022-08-01T04:44:26;8.95;;;2.95;;
63157;SDS011;49381;49.338;8.794;2022-08-01T04:46:28;7.65;;;3.30;;
63157;SDS011;49381;49.338;8.794;2022-08-01T04:48:29;6.88;;;3.28;;
63157;SDS011;49381;49.338;8.794;2022-08-01T04:50:31;6.63;;;2.83;;
63157;SDS011;49381;49.338;8.794;2022-08-01T04:52:32;8.18;;;3.28;;
63157;SDS011;49381;49.338;8.794;2022-08-01T04:54:34;8.80;;;3.15;;
63157;SDS011;49381;49.338;8.794;2022-08-01T04:56:35;13.15;;;3.10;;
63157;SDS011;49381;49.338;8.794;2022-08-01T04:58:35;11.85;;;3.20;;
63157;SDS011;49381;49.338;8.794;2022-08-01T05:00:35;11.60;;;3.17;;
63157;SDS011;49381;49.338;8.794;2022-08-01T05:02:37;22.85;;;4.22;;
63157;SDS011;49381;49.338;8.794;2022-08-01T05:04:38;15.35;;;3.60;;
63157;SDS011;49381;49.338;8.794;2022-08-01T05:06:39;10.80;;;3.40;;
63157;SDS011;49381;49.338;8.794;2022-08-01T05:08:39;12.02;;;3.33;;
63157;SDS011;49381;49.338;8.794;2022-08-01T05:10:39;10.73;;;3.92;;
63157;SDS011;49381;49.338;8.794;2022-08-01T05:12:40;9.38;;;3.58;;
63157;SDS011;49381;49.338;8.794;2022-08-01T05:14:40;8.80;;;3.00;;
63157;SDS011;49381;49.338;8.794;2022-08-01T05:16:42;9.70;;;3.40;;
63157;SDS011;49381;49.338;8.794;2022-08-01T05:18:44;11.60;;;3.30;;
63157;SDS011;49381;49.338;8.794;2022-08-01T05:20:44;4.00;;;2.85;;
63157;SDS011;49381;49.338;8.794;2022-08-01T05:22:44;4.70;;;2.97;;
63157;SDS011;49381;49.338;8.794;2022-08-01T05:24:45;9.88;;;3.55;;
63157;SDS011;49381;49.338;8.794;2022-08-01T05:26:45;12.52;;;4.00;;
63157;SDS011;49381;49.338;8.794;2022-08-01T05:28:45;12.68;;;3.90;;
63157;SDS011;49381;49.338;8.794;2022-08-01T05:30:46;8.05;;;3.15;;
63157;SDS011;49381;49.338;8.794;2022-08-01T05:32:49;6.65;;;3.13;;
63157;SDS011;49381;49.338;8.794;2022-08-01T05:34:50;8.07;;;3.72;;
63157;SDS011;49381;49.338;8.794;2022-08-01T05:36:50;19.05;;;4.10;;
63157;SDS011;49381;49.338;8.794;2022-08-01T05:38:51;17.48;;;4.18;;
63157;SDS011;49381;49.338;8.794;2022-08-01T05:40:51;24.35;;;4.70;;
63157;SDS011;49381;49.338;8.794;2022-08-01T05:42:52;21.02;;;4.40;;
63157;SDS011;49381;49.338;8.794;2022-08-01T05:44:52;31.52;;;4.78;;
63157;SDS011;49381;49.338;8.794;2022-08-01T05:46:52;17.40;;;4.20;;
63157;SDS011;49381;49.338;8.794;2022-08-01T05:48:53;13.02;;;3.55;;
63157;SDS011;49381;49.338;8.794;2022-08-01T05:50:54;12.07;;;3.67;;
63157;SDS011;49381;49.338;8.794;2022-08-01T05:52:55;13.93;;;3.53;;
63157;SDS011;49381;49.338;8.794;2022-08-01T05:54:55;16.02;;;3.65;;
63157;SDS011;49381;49.338;8.794;2022-08-01T05:56:55;16.98;;;3.55;;
63157;SDS011;49381;49.338;8.794;2022-08-01T05:58:56;14.95;;;3.10;;
63157;SDS011;49381;49.338;8.794;2022-08-01T06:00:56;12.02;;;3.53;;
63157;SDS011;49381;49.338;8.794;2022-08-01T06:02:56;10.43;;;3.42;;
63157;SDS011;49381;49.338;8.794;2022-08-01T06:04:57;11.93;;;4.45;;
63157;SDS011;49381;49.338;8.794;2022-08-01T06:06:58;12.18;;;3.25;;
63157;SDS011;49381;49.338;8.794;2022-08-01T06:08:59;12.40;;;3.50;;
63157;SDS011;49381;49.338;8.794;2022-08-01T06:10:59;14.63;;;4.15;;
63157;SDS011;49381;49.338;8.794;2022-08-01T06:12:59;9.13;;;3.33;;
63157;SDS011;49381;49.338;8.794;2022-08-01T06:15:00;15.40;;;4.00;;
63157;SDS011;49381;49.338;8.794;2022-08-01T06:17:00;7.50;;;2.65;;
63157;SDS011;49381;49.338;8.794;2022-08-01T06:19:00;12.57;;;3.33;;
63157;SDS011;49381;49.338;8.794;2022-08-01T06:21:01;12.80;;;3.45;;
63157;SDS011;49381;49.338;8.794;2022-08-01T06:23:02;17.02;;;3.83;;
63157;SDS011;49381;49.338;8.794;2022-08-01T06:25:03;8.88;;;3.03;;
63157;SDS011;49381;49.338;8.794;2022-08-01T06:27:04;9.50;;;3.53;;
63157;SDS011;49381;49.338;8.794;2022-08-01T06:29:05;7.82;;;3.63;;
63157;SDS011;49381;49.338;8.794;2022-08-01T06:31:05;6.28;;;3.10;;
63157;SDS011;49381;49.338;8.794;2022-08-01T06:33:05;6.18;;;3.13;;
63157;SDS011;49381;49.338;8.794;2022-08-01T06:35:06;8.55;;;3.90;;
63157;SDS011;49381;49.338;8.794;2022-08-01T06:37:07;4.28;;;2.80;;
63157;SDS011;49381;49.338;8.794;2022-08-01T06:39:08;9.35;;;3.05;;
63157;SDS011;49381;49.338;8.794;2022-08-01T06:41:09;4.72;;;2.63;;
63157;SDS011;49381;49.338;8.794;2022-08-01T06:43:09;9.70;;;3.83;;
63157;SDS011;49381;49.338;8.794;2022-08-01T06:45:10;5.00;;;2.70;;
63157;SDS011;49381;49.338;8.794;2022-08-01T06:47:11;5.43;;;2.83;;
63157;SDS011;49381;49.338;8.794;2022-08-01T06:49:12;6.47;;;2.70;;
63157;SDS011;49381;49.338;8.794;2022-08-01T06:51:12;4.60;;;2.42;;
63157;SDS011;49381;49.338;8.794;2022-08-01T06:53:12;7.57;;;2.40;;
63157;SDS011;49381;49.338;8.794;2022-08-01T06:55:15;4.43;;;2.35;;
63157;SDS011;49381;49.338;8.794;2022-08-01T06:57:15;3.85;;;2.20;;
63157;SDS011;49381;49.338;8.794;2022-08-01T06:59:16;4.45;;;2.10;;
63157;SDS011;49381;49.338;8.794;2022-08-01T07:01:16;4.32;;;1.98;;
63157;SDS011;49381;49.338;8.794;2022-08-01T07:03:16;3.80;;;1.75;;
63157;SDS011;49381;49.338;8.794;2022-08-01T07:05:17;4.60;;;2.20;;
63157;SDS011;49381;49.338;8.794;2022-08-01T07:07:17;4.45;;;1.83;;
63157;SDS011;49381;49.338;8.794;2022-08-01T07:09:18;2.40;;;1.50;;
63157;SDS011;49381;49.338;8.794;2022-08-01T07:11:19;3.00;;;1.88;;
63157;SDS011;49381;49.338;8.794;2022-08-01T07:13:21;2.95;;;1.60;;
63157;SDS011;49381;49.338;8.794;2022-08-01T07:15:21;3.58;;;1.75;;
63157;SDS011;49381;49.338;8.794;2022-08-01T07:17:21;2.42;;;1.58;;
63157;SDS011;49381;49.338;8.794;2022-08-01T07:19:22;3.10;;;1.90;;
63157;SDS011;49381;49.338;8.794;2022-08-01T07:21:22;6.45;;;2.13;;
63157;SDS011;49381;49.338;8.794;2022-08-01T07:23:22;7.57;;;1.77;;
63157;SDS011;49381;49.338;8.794;2022-08-01T07:25:23;4.88;;;1.63;;
63157;SDS011;49381;49.338;8.794;2022-08-01T07:27:24;4.45;;;1.65;;
63157;SDS011;49381;49.338;8.794;2022-08-01T07:29:25;3.78;;;1.40;;
63157;SDS011;49381;49.338;8.794;2022-08-01T07:31:26;3.22;;;1.25;;
63157;SDS011;49381;49.338;8.794;2022-08-01T07:33:26;1.80;;;1.20;;
63157;SDS011;49381;49.338;8.794;2022-08-01T07:35:27;3.65;;;1.13;;
63157;SDS011;49381;49.338;8.794;2022-08-01T07:37:27;2.78;;;1.00;;
63157;SDS011;49381;49.338;8.794;2022-08-01T07:39:27;6.32;;;1.33;;
63157;SDS011;49381;49.338;8.794;2022-08-01T07:41:28;2.28;;;1.20;;
63157;SDS011;49381;49.338;8.794;2022-08-01T07:43:29;3.47;;;1.23;;
63157;SDS011;49381;49.338;8.794;2022-08-01T07:45:30;3.83;;;1.17;;
63157;SDS011;49381;49.338;8.794;2022-08-01T07:47:30;4.18;;;1.60;;
63157;SDS011;49381;49.338;8.794;2022-08-01T07:49:30;3.22;;;1.30;;
63157;SDS011;49381;49.338;8.794;2022-08-01T07:51:31;3.88;;;1.40;;
63157;SDS011;49381;49.338;8.794;2022-08-01T07:53:31;2.97;;;1.05;;
63157;SDS011;49381;49.338;8.794;2022-08-01T07:55:31;2.85;;;1.20;;
63157;SDS011;49381;49.338;8.794;2022-08-01T07:57:32;2.58;;;1.42;;
63157;SDS011;49381;49.338;8.794;2022-08-01T07:59:33;3.08;;;1.30;;
63157;SDS011;49381;49.338;8.794;2022-08-01T08:01:34;3.05;;;1.15;;
63157;SDS011;49381;49.338;8.794;2022-08-01T08:03:34;2.40;;;1.48;;
63157;SDS011;49381;49.338;8.794;2022-08-01T08:05:35;2.70;;;1.05;;
63157;SDS011;49381;49.338;8.794;2022-08-01T08:07:35;3.40;;;0.98;;
63157;SDS011;49381;49.338;8.794;2022-08-01T08:09:36;2.03;;;1.20;;
63157;SDS011;49381;49.338;8.794;2022-08-01T08:11:36;5.25;;;1.30;;
63157;SDS011;49381;49.338;8.794;2022-08-01T08:13:36;5.07;;;1.10;;
63157;SDS011;49381;49.338;8.794;2022-08-01T08:15:38;3.63;;;1.05;;
63157;SDS011;49381;49.338;8.794;2022-08-01T08:17:39;2.15;;;1.33;;
63157;SDS011;49381;49.338;8.794;2022-08-01T08:19:39;3.47;;;1.40;;
63157;SDS011;49381;49.338;8.794;2022-08-01T08:21:39;3.28;;;1.08;;
63157;SDS011;49381;49.338;8.794;2022-08-01T08:23:40;1.40;;;0.93;;
63157;SDS011;49381;49.338;8.794;2022-08-01T08:25:40;3.10;;;1.33;;
63157;SDS011;49381;49.338;8.794;2022-08-01T08:27:41;2.17;;;1.10;;
63157;SDS011;49381;49.338;8.794;2022-08-01T08:29:41;2.75;;;1.10;;
63157;SDS011;49381;49.338;8.794;2022-08-01T08:31:43;2.13;;;0.85;;
63157;SDS011;49381;49.338;8.794;2022-08-01T08:33:43;4.22;;;1.25;;
63157;SDS011;49381;49.338;8.794;2022-08-01T08:35:43;1.42;;;1.05;;
63157;SDS011;49381;49.338;8.794;2022-08-01T08:37:44;3.22;;;0.90;;
63157;SDS011;49381;49.338;8.794;2022-08-01T08:39:44;1.95;;;0.65;;
63157;SDS011;49381;49.338;8.794;2022-08-01T08:41:44;2.80;;;0.90;;
63157;SDS011;49381;49.338;8.794;2022-08-01T08:43:45;2.30;;;0.80;;
63157;SDS011;49381;49.338;8.794;2022-08-01T08:45:45;3.05;;;0.93;;
63157;SDS011;49381;49.338;8.794;2022-08-01T08:47:47;3.20;;;1.00;;
63157;SDS011;49381;49.338;8.794;2022-08-01T08:49:51;4.07;;;0.90;;
63157;SDS011;49381;49.338;8.794;2022-08-01T08:51:54;2.33;;;1.08;;
63157;SDS011;49381;49.338;8.794;2022-08-01T08:53:58;3.15;;;1.05;;
63157;SDS011;49381;49.338;8.794;2022-08-01T08:56:00;1.98;;;1.05;;
63157;SDS011;49381;49.338;8.794;2022-08-01T08:58:01;1.27;;;0.82;;
63157;SDS011;49381;49.338;8.794;2022-08-01T09:00:02;1.33;;;0.80;;
63157;SDS011;49381;49.338;8.794;2022-08-01T09:02:03;1.85;;;0.77;;
63157;SDS011;49381;49.338;8.794;2022-08-01T09:04:05;1.95;;;1.15;;
63157;SDS011;49381;49.338;8.794;2022-08-01T09:06:06;1.30;;;0.80;;
63157;SDS011;49381;49.338;8.794;2022-08-01T09:08:06;1.40;;;0.80;;
63157;SDS011;49381;49.338;8.794;2022-08-01T09:10:07;1.83;;;0.90;;
63157;SDS011;49381;49.338;8.794;2022-08-01T09:12:08;1.58;;;0.90;;
63157;SDS011;49381;49.338;8.794;2022-08-01T09:14:09;1.08;;;0.70;;
63157;SDS011;49381;49.338;8.794;2022-08-01T09:16:15;3.53;;;1.17;;
63157;SDS011;49381;49.338;8.794;2022-08-01T09:18:25;1.80;;;0.70;;
63157;SDS011;49381;49.338;8.794;2022-08-01T09:20:29;2.50;;;0.85;;
63157;SDS011;49381;49.338;8.794;2022-08-01T09:22:30;5.15;;;1.05;;
63157;SDS011;49381;49.338;8.794;2022-08-01T09:24:33;2.13;;;0.75;;
63157;SDS011;49381;49.338;8.794;2022-08-01T09:26:35;3.45;;;0.95;;
63157;SDS011;49381;49.338;8.794;2022-08-01T09:28:36;2.25;;;0.90;;
63157;SDS011;49381;49.338;8.794;2022-08-01T09:30:37;3.28;;;0.70;;
63157;SDS011;49381;49.338;8.794;2022-08-01T09:32:52;1.92;;;0.93;;
63157;SDS011;49381;49.338;8.794;2022-08-01T09:34:53;2.22;;;0.75;;
63157;SDS011;49381;49.338;8.794;2022-08-01T09:36:55;1.55;;;0.80;;
63157;SDS011;49381;49.338;8.794;2022-08-01T09:38:57;2.72;;;0.90;;
63157;SDS011;49381;49.338;8.794;2022-08-01T09:41:12;1.63;;;0.63;;
63157;SDS011;49381;49.338;8.794;2022-08-01T09:43:13;2.25;;;0.90;;
63157;SDS011;49381;49.338;8.794;2022-08-01T09:47:36;1.02;;;0.80;;
63157;SDS011;49381;49.338;8.794;2022-08-01T09:49:37;1.48;;;0.60;;
63157;SDS011;49381;49.338;8.794;2022-08-01T09:51:39;1.65;;;0.77;;
63157;SDS011;49381;49.338;8.794;2022-08-01T09:53:41;2.72;;;0.98;;
63157;SDS011;49381;49.338;8.794;2022-08-01T09:55:45;3.15;;;0.90;;
63157;SDS011;49381;49.338;8.794;2022-08-01T09:57:54;2.13;;;0.80;;
63157;SDS011;49381;49.338;8.794;2022-08-01T09:59:57;1.85;;;0.82;;
63157;SDS011;49381;49.338;8.794;2022-08-01T10:01:59;2.10;;;0.82;;
63157;SDS011;49381;49.338;8.794;2022-08-01T10:04:04;3.63;;;0.88;;
63157;SDS011;49381;49.338;8.794;2022-08-01T10:06:17;2.20;;;0.70;;
63157;SDS011;49381;49.338;8.794;2022-08-01T10:08:19;1.85;;;0.88;;
63157;SDS011;49381;49.338;8.794;2022-08-01T10:10:21;1.10;;;0.80;;
63157;SDS011;49381;49.338;8.794;2022-08-01T10:12:22;1.65;;;0.80;;
63157;SDS011;49381;49.338;8.794;2022-08-01T10:14:23;2.47;;;1.10;;
63157;SDS011;49381;49.338;8.794;2022-08-01T10:16:24;1.85;;;1.00;;
63157;SDS011;49381;49.338;8.794;2022-08-01T10:18:26;2.70;;;1.00;;
63157;SDS011;49381;49.338;8.794;2022-08-01T10:20:31;1.52;;;0.82;;
63157;SDS011;49381;49.338;8.794;2022-08-01T10:22:35;3.60;;;0.85;;
63157;SDS011;49381;49.338;8.794;2022-08-01T10:24:38;2.30;;;0.70;;
63157;SDS011;49381;49.338;8.794;2022-08-01T10:26:40;2.55;;;0.68;;
63157;SDS011;49381;49.338;8.794;2022-08-01T10:28:43;1.73;;;0.80;;
63157;SDS011;49381;49.338;8.794;2022-08-01T10:30:47;0.95;;;0.60;;
63157;SDS011;49381;49.338;8.794;2022-08-01T10:32:49;3.25;;;0.82;;
63157;SDS011;49381;49.338;8.794;2022-08-01T10:34:50;0.82;;;0.70;;
63157;SDS011;49381;49.338;8.794;2022-08-01T10:36:54;3.33;;;0.80;;
63157;SDS011;49381;49.338;8.794;2022-08-01T10:38:55;2.95;;;0.77;;
63157;SDS011;49381;49.338;8.794;2022-08-01T10:40:56;4.60;;;0.93;;
63157;SDS011;49381;49.338;8.794;2022-08-01T10:42:58;0.98;;;0.63;;
63157;SDS011;49381;49.338;8.794;2022-08-01T10:44:59;2.38;;;0.68;;
63157;SDS011;49381;49.338;8.794;2022-08-01T10:47:02;3.05;;;0.50;;
63157;SDS011;49381;49.338;8.794;2022-08-01T10:49:05;1.80;;;0.75;;
63157;SDS011;49381;49.338;8.794;2022-08-01T10:51:10;1.40;;;0.70;;
63157;SDS011;49381;49.338;8.794;2022-08-01T10:53:15;2.25;;;0.63;;
63157;SDS011;49381;49.338;8.794;2022-08-01T10:55:17;0.73;;;0.60;;
63157;SDS011;49381;49.338;8.794;2022-08-01T10:57:17;1.38;;;0.80;;
63157;SDS011;49381;49.338;8.794;2022-08-01T10:59:21;3.70;;;0.60;;
63157;SDS011;49381;49.338;8.794;2022-08-01T11:01:29;1.73;;;0.70;;
63157;SDS011;49381;49.338;8.794;2022-08-01T11:03:32;1.75;;;0.50;;
63157;SDS011;49381;49.338;8.794;2022-08-01T11:05:35;0.80;;;0.50;;
63157;SDS011;49381;49.338;8.794;2022-08-01T11:07:41;2.00;;;0.70;;
63157;SDS011;49381;49.338;8.794;2022-08-01T11:09:51;2.47;;;0.50;;
63157;SDS011;49381;49.338;8.794;2022-08-01T11:12:14;1.38;;;0.63;;
63157;SDS011;49381;49.338;8.794;2022-08-01T11:14:22;1.92;;;0.80;;
63157;SDS011;49381;49.338;8.794;2022-08-01T11:16:31;1.42;;;0.60;;
63157;SDS011;49381;49.338;8.794;2022-08-01T11:18:38;1.10;;;0.60;;
63157;SDS011;49381;49.338;8.794;2022-08-01T11:20:55;2.80;;;0.77;;
63157;SDS011;49381;49.338;8.794;2022-08-01T11:28:17;1.90;;;0.73;;
63157;SDS011;49381;49.338;8.794;2022-08-01T11:30:25;2.08;;;0.98;;
63157;SDS011;49381;49.338;8.794;2022-08-01T11:32:29;1.77;;;0.90;;
63157;SDS011;49381;49.338;8.794;2022-08-01T11:41:24;1.40;;;0.70;;
63157;SDS011;49381;49.338;8.794;2022-08-01T11:43:31;0.93;;;0.57;;
63157;SDS011;49381;49.338;8.794;2022-08-01T11:47:50;1.35;;;0.80;;
63157;SDS011;49381;49.338;8.794;2022-08-01T11:49:50;1.67;;;0.80;;
63157;SDS011;49381;49.338;8.794;2022-08-01T11:51:56;2.05;;;0.95;;
63157;SDS011;49381;49.338;8.794;2022-08-01T11:53:57;1.85;;;0.80;;
63157;SDS011;49381;49.338;8.794;2022-08-01T11:56:31;1.25;;;0.82;;
63157;SDS011;49381;49.338;8.794;2022-08-01T11:58:25;1.42;;;0.77;;
63157;SDS011;49381;49.338;8.794;2022-08-01T12:00:34;1.33;;;0.90;;
63157;SDS011;49381;49.338;8.794;2022-08-01T12:05:13;1.13;;;0.70;;
63157;SDS011;49381;49.338;8.794;2022-08-01T12:07:18;3.00;;;1.00;;
63157;SDS011;49381;49.338;8.794;2022-08-01T12:09:32;1.15;;;0.82;;
63157;SDS011;49381;49.338;8.794;2022-08-01T12:13:48;1.70;;;0.90;;
63157;SDS011;49381;49.338;8.794;2022-08-01T12:15:55;2.00;;;0.98;;
63157;SDS011;49381;49.338;8.794;2022-08-01T12:17:56;3.58;;;1.20;;
63157;SDS011;49381;49.338;8.794;2022-08-01T12:19:58;1.33;;;0.75;;
63157;SDS011;49381;49.338;8.794;2022-08-01T12:22:17;1.80;;;0.80;;
63157;SDS011;49381;49.338;8.794;2022-08-01T12:27:09;0.80;;;0.63;;
63157;SDS011;49381;49.338;8.794;2022-08-01T12:29:10;1.42;;;0.75;;
63157;SDS011;49381;49.338;8.794;2022-08-01T12:31:34;2.47;;;0.90;;
63157;SDS011;49381;49.338;8.794;2022-08-01T12:33:39;2.00;;;0.73;;
63157;SDS011;49381;49.338;8.794;2022-08-01T12:35:44;1.95;;;0.60;;
63157;SDS011;49381;49.338;8.794;2022-08-01T12:37:50;1.08;;;0.60;;
63157;SDS011;49381;49.338;8.794;2022-08-01T12:39:53;1.33;;;0.70;;
63157;SDS011;49381;49.338;8.794;2022-08-01T12:42:10;2.35;;;1.00;;
63157;SDS011;49381;49.338;8.794;2022-08-01T12:46:14;2.65;;;0.88;;